createdAt,value
2019-03-25T00:03:24.977Z,82.58
2019-03-25T00:07:26.893Z,82.69
2019-03-25T00:11:28.805Z,82.98
2019-03-25T00:15:30.705Z,82.99
2019-03-25T00:19:32.649Z,83.20
2019-03-25T00:23:34.566Z,83.22
2019-03-25T00:27:36.470Z,83.38
2019-03-25T00:31:38.391Z,83.26
2019-03-25T00:35:40.553Z,83.63
2019-03-25T00:39:43.429Z,83.49
2019-03-25T00:43:45.338Z,83.18
2019-03-25T00:47:47.245Z,83.34
2019-03-25T00:51:49.162Z,83.42
2019-03-25T00:55:51.083Z,83.54
2019-03-25T00:59:53.321Z,84.06
2019-03-25T01:03:55.310Z,84.30
2019-03-25T01:07:57.247Z,84.44
2019-03-25T01:11:59.161Z,84.46
2019-03-25T01:16:03.564Z,84.52
2019-03-25T01:20:10.458Z,84.28
2019-03-25T01:24:12.431Z,84.45
2019-03-25T01:28:15.160Z,84.57
2019-03-25T01:32:17.084Z,84.67
2019-03-25T01:36:18.991Z,85.42
2019-03-25T01:40:20.904Z,85.92
2019-03-25T01:44:22.805Z,86.42
2019-03-25T01:48:24.720Z,86.70
2019-03-25T01:52:26.611Z,88.78
2019-03-25T01:56:28.513Z,87.34
2019-03-25T02:00:30.468Z,88.82
2019-03-25T02:04:32.378Z,89.01
2019-03-25T02:08:34.304Z,88.37
2019-03-25T02:12:36.212Z,88.04
2019-03-25T02:16:38.123Z,87.06
2019-03-25T02:20:40.035Z,86.57
2019-03-25T02:24:42.245Z,86.04
2019-03-25T02:28:44.141Z,85.64
2019-03-25T02:32:46.060Z,85.48
2019-03-25T02:36:48.013Z,85.44
2019-03-25T02:40:49.923Z,84.92
2019-03-25T02:44:51.830Z,84.78
2019-03-25T02:48:53.744Z,84.79
2019-03-25T02:52:58.969Z,83.96
2019-03-25T02:57:02.945Z,84.02
2019-03-25T03:01:04.936Z,83.58
2019-03-25T03:05:08.530Z,83.07
2019-03-25T03:25:56.388Z,82.33
2019-03-25T03:29:45.932Z,82.54
2019-03-25T03:33:47.882Z,82.79
2019-03-25T03:37:50.017Z,82.55
2019-03-25T03:41:51.911Z,82.63
2019-03-25T03:45:53.879Z,82.83
2019-03-25T03:49:55.771Z,82.99
2019-03-25T03:53:58.217Z,83.44
2019-03-25T03:58:03.450Z,83.31
2019-03-25T04:02:05.356Z,81.82
2019-03-25T04:06:07.265Z,82.17
2019-03-25T04:10:09.513Z,81.69
2019-03-25T04:14:11.603Z,80.67
2019-03-25T04:18:13.504Z,80.22
2019-03-25T04:22:15.407Z,79.23
2019-03-25T04:26:28.590Z,77.89
2019-03-25T04:30:21.044Z,77.92
2019-03-25T04:34:22.944Z,78.16
2019-03-25T04:38:44.172Z,78.25
2019-03-25T04:42:54.382Z,78.39
2019-03-25T04:46:56.483Z,78.93
2019-03-25T04:50:58.458Z,79.63
2019-03-25T04:55:00.445Z,79.91
2019-03-25T04:59:02.682Z,80.48
2019-03-25T05:03:05.074Z,80.84
2019-03-25T05:07:07.048Z,81.34
2019-03-25T05:11:08.997Z,81.55
2019-03-25T05:15:11.350Z,81.38
2019-03-25T05:19:13.263Z,81.52
2019-03-25T05:23:15.170Z,81.71
2019-03-25T05:27:17.094Z,82.01
2019-03-25T05:31:18.984Z,82.13
2019-03-25T05:35:20.900Z,82.57
2019-03-25T05:39:22.795Z,83.61
2019-03-25T05:43:24.712Z,82.74
2019-03-25T05:47:26.662Z,81.95
2019-03-25T05:51:28.643Z,81.27
2019-03-25T05:55:30.550Z,80.17
2019-03-25T05:59:32.469Z,78.53
2019-03-25T06:03:34.402Z,78.12
2019-03-25T06:07:36.328Z,77.26
2019-03-25T06:11:38.231Z,77.09
2019-03-25T06:15:40.168Z,76.97
2019-03-25T06:19:42.333Z,75.71
2019-03-25T06:23:44.244Z,75.20
2019-03-25T06:27:46.784Z,74.70
2019-03-25T06:31:48.746Z,73.85
2019-03-25T06:35:50.683Z,73.48
2019-03-25T06:39:52.602Z,73.20
2019-03-25T06:43:54.499Z,71.87
2019-03-25T06:47:56.489Z,70.92
2019-03-25T06:51:59.304Z,70.17
2019-03-25T06:56:04.321Z,70.92
2019-03-25T07:00:09.459Z,69.97
2019-03-25T07:04:11.434Z,70.11
2019-03-25T07:16:30.149Z,68.99
2019-03-25T07:20:32.061Z,68.34
2019-03-25T07:24:33.956Z,68.82
2019-03-25T07:28:35.935Z,69.02
2019-03-25T07:32:44.809Z,67.37
2019-03-25T07:36:46.698Z,65.97
2019-03-25T07:40:48.679Z,66.15
2019-03-25T07:44:50.595Z,66.14
2019-03-25T07:48:52.780Z,64.67
2019-03-25T07:52:54.668Z,63.73
2019-03-25T07:56:56.605Z,64.04
2019-03-25T08:00:58.513Z,62.23
2019-03-25T08:05:00.435Z,61.34
2019-03-25T08:09:04.025Z,61.35
2019-03-25T08:13:06.314Z,60.54
2019-03-25T08:17:08.260Z,59.70
2019-03-25T08:21:10.164Z,58.62
2019-03-25T08:25:12.556Z,59.48
2019-03-25T08:29:14.459Z,60.39
2019-03-25T08:33:16.440Z,60.83
2019-03-25T08:37:21.818Z,59.40
2019-03-25T08:41:23.715Z,59.35
2019-03-25T08:45:25.655Z,59.32
2019-03-25T08:49:27.568Z,58.25
2019-03-25T08:53:29.518Z,59.10
2019-03-25T08:57:31.417Z,61.97
2019-03-25T09:01:33.347Z,64.12
2019-03-25T09:05:35.236Z,65.22
2019-03-25T09:09:37.146Z,67.33
2019-03-25T09:13:39.039Z,69.34
2019-03-25T09:17:41.057Z,69.16
2019-03-25T09:21:43.018Z,69.65
2019-03-25T09:25:45.017Z,68.33
2019-03-25T09:29:46.939Z,68.76
2019-03-25T09:33:51.191Z,69.29
2019-03-25T09:37:53.085Z,68.26
2019-03-25T09:41:54.992Z,67.04
2019-03-25T09:45:56.884Z,66.28
2019-03-25T09:49:58.789Z,65.79
2019-03-25T09:54:00.697Z,65.47
2019-03-25T09:58:05.491Z,65.58
2019-03-25T10:02:07.586Z,65.15
2019-03-25T10:06:09.544Z,65.26
2019-03-25T10:10:11.754Z,65.49
2019-03-25T10:14:13.657Z,67.04
2019-03-25T10:18:15.544Z,67.48
2019-03-25T10:22:17.541Z,68.29
2019-03-25T10:26:22.636Z,69.94
2019-03-25T10:30:25.323Z,69.75
2019-03-25T10:34:27.230Z,66.73
2019-03-25T10:38:30.230Z,66.49
2019-03-25T10:42:32.140Z,64.95
2019-03-25T10:46:34.102Z,66.92
2019-03-25T10:50:36.547Z,64.06
2019-03-25T10:54:38.523Z,65.37
2019-03-25T10:58:40.523Z,65.43
2019-03-25T11:02:42.414Z,67.78
2019-03-25T11:06:48.120Z,69.37
2019-03-25T11:10:49.106Z,68.03
2019-03-25T11:14:51.014Z,65.43
2019-03-25T11:18:53.162Z,63.99
2019-03-25T11:22:55.877Z,61.47
2019-03-25T11:26:57.825Z,58.37
2019-03-25T11:31:00.235Z,55.36
2019-03-25T11:35:05.615Z,53.72
2019-03-25T11:39:09.309Z,54.39
2019-03-25T11:43:11.209Z,55.18
2019-03-25T11:47:13.203Z,55.15
2019-03-25T11:51:15.189Z,58.17
2019-03-25T11:55:17.896Z,61.26
2019-03-25T11:59:19.955Z,67.41
2019-03-25T12:03:21.923Z,72.02
2019-03-25T12:07:23.811Z,74.99
2019-03-25T12:11:25.716Z,77.10
2019-03-25T12:15:27.615Z,78.93
2019-03-25T12:19:29.625Z,80.51
2019-03-25T12:23:31.511Z,81.63
2019-03-25T12:27:33.502Z,82.83
2019-03-25T12:31:35.405Z,83.18
2019-03-25T12:35:37.530Z,84.17
2019-03-25T12:39:39.429Z,84.71
2019-03-25T12:43:42.562Z,81.56
2019-03-25T12:47:44.444Z,80.19
2019-03-25T12:51:48.358Z,77.87
2019-03-25T12:55:49.942Z,75.88
2019-03-25T12:59:51.847Z,75.25
2019-03-25T13:03:53.774Z,73.97
2019-03-25T13:07:55.680Z,71.72
2019-03-25T13:11:57.572Z,68.50
2019-03-25T13:15:59.469Z,69.11
2019-03-25T13:20:04.662Z,72.12
2019-03-25T13:24:08.073Z,72.38
2019-03-25T13:28:09.957Z,73.51
2019-03-25T13:32:11.862Z,71.43
2019-03-25T13:36:13.777Z,69.59
2019-03-25T13:40:16.288Z,67.06
2019-03-25T13:44:18.190Z,66.40
2019-03-25T13:48:20.096Z,63.98
2019-03-25T13:52:22.005Z,61.50
2019-03-25T13:56:23.919Z,61.25
2019-03-25T14:00:37.790Z,61.37
2019-03-25T14:04:39.689Z,61.01
2019-03-25T14:08:42.653Z,62.34
2019-03-25T14:12:44.563Z,62.40
2019-03-25T14:16:49.356Z,63.52
2019-03-25T14:20:50.067Z,62.85
2019-03-25T14:24:51.979Z,63.02
2019-03-25T14:28:53.974Z,64.34
2019-03-25T14:32:55.882Z,66.97
2019-03-25T14:36:57.794Z,74.69
2019-03-25T14:40:59.696Z,79.10
2019-03-25T14:45:04.738Z,81.31
2019-03-25T14:49:06.714Z,83.16
2019-03-25T14:53:08.598Z,83.74
2019-03-25T14:57:10.719Z,83.16
2019-03-25T15:01:12.607Z,83.77
2019-03-25T15:05:15.401Z,83.74
2019-03-25T15:09:17.304Z,83.57
2019-03-25T15:13:19.179Z,83.19
2019-03-25T15:17:21.079Z,82.92
2019-03-25T15:21:22.981Z,82.69
2019-03-25T15:25:24.867Z,83.14
2019-03-25T15:29:26.781Z,83.06
2019-03-25T15:33:28.685Z,82.26
2019-03-25T15:37:30.607Z,82.35
2019-03-25T15:41:32.509Z,82.18
2019-03-25T15:45:34.598Z,81.58
2019-03-25T15:49:36.482Z,81.40
2019-03-25T15:53:38.379Z,81.56
2019-03-25T15:57:53.965Z,81.92
2019-03-25T16:01:55.952Z,82.33
2019-03-25T16:05:57.843Z,83.54
2019-03-25T16:09:59.735Z,83.20
2019-03-25T16:14:01.615Z,84.30
2019-03-25T16:18:06.656Z,83.67
2019-03-25T16:22:09.161Z,83.46
2019-03-25T16:26:11.077Z,84.11
2019-03-25T16:30:13.236Z,84.90
2019-03-25T16:34:15.122Z,86.15
2019-03-25T16:38:17.109Z,85.65
2019-03-25T16:42:19.011Z,84.95
2019-03-25T16:46:21.385Z,84.75
2019-03-25T16:50:23.286Z,85.55
2019-03-25T16:54:25.179Z,84.36
2019-03-25T16:58:27.084Z,84.90
2019-03-25T17:02:28.980Z,85.26
2019-03-25T17:06:30.887Z,85.11
2019-03-25T17:10:32.789Z,85.56
2019-03-25T17:14:34.678Z,85.59
2019-03-25T17:18:36.556Z,85.56
2019-03-25T17:22:38.495Z,85.98
2019-03-25T17:26:42.553Z,86.91
2019-03-25T17:30:43.976Z,86.97
2019-03-25T17:34:45.872Z,86.92
2019-03-25T17:38:47.770Z,86.92
2019-03-25T17:42:49.715Z,86.91
2019-03-25T17:46:52.580Z,87.15
2019-03-25T17:50:54.466Z,87.29
2019-03-25T17:54:56.406Z,87.39
2019-03-25T17:58:58.331Z,87.49
2019-03-25T18:03:10.561Z,87.65
2019-03-25T18:07:22.170Z,88.37
2019-03-25T18:11:34.326Z,88.57
2019-03-25T18:15:36.331Z,88.61
2019-03-25T18:19:38.231Z,88.66
2019-03-25T18:23:40.126Z,89.03
2019-03-25T18:27:42.831Z,88.92
2019-03-25T18:31:44.732Z,89.42
2019-03-25T18:35:47.588Z,89.56
2019-03-25T18:39:49.484Z,89.37
2019-03-25T18:43:51.394Z,89.13
2019-03-25T18:47:53.509Z,89.34
2019-03-25T18:51:55.438Z,89.27
2019-03-25T18:55:57.409Z,88.87
2019-03-25T18:59:59.319Z,89.18
2019-03-25T19:04:04.416Z,89.19
2019-03-25T19:08:08.802Z,88.96
2019-03-25T19:12:10.684Z,88.85
2019-03-25T19:16:13.552Z,88.58
2019-03-25T19:20:15.474Z,88.12
2019-03-25T19:24:17.364Z,87.81
2019-03-25T19:28:19.248Z,87.49
2019-03-25T19:32:21.879Z,87.52
2019-03-25T19:36:23.774Z,87.91
2019-03-25T19:40:25.647Z,88.19
2019-03-25T19:44:27.559Z,88.20
2019-03-25T19:48:29.463Z,88.32
2019-03-25T19:52:31.333Z,87.55
2019-03-25T19:56:33.231Z,87.42
2019-03-25T20:00:39.213Z,87.53
2019-03-25T20:04:41.212Z,87.17
2019-03-25T20:08:43.280Z,87.04
2019-03-25T20:12:45.220Z,86.74
2019-03-25T20:16:47.136Z,86.53
2019-03-25T20:20:49.050Z,86.46
2019-03-25T20:24:50.927Z,86.61
2019-03-25T20:28:52.851Z,86.73
2019-03-25T20:32:54.723Z,86.66
2019-03-25T20:36:56.609Z,86.80
2019-03-25T20:40:58.500Z,87.20
2019-03-25T20:45:00.413Z,87.62
2019-03-25T20:49:02.559Z,87.92
2019-03-25T20:53:04.641Z,88.53
2019-03-25T20:57:06.583Z,88.15
2019-03-25T21:01:08.470Z,88.46
2019-03-25T21:05:11.408Z,88.84
2019-03-25T21:09:32.556Z,89.12
2019-03-25T21:13:38.058Z,89.51
2019-03-25T21:17:39.965Z,88.63
2019-03-25T21:21:42.896Z,89.22
2019-03-25T21:25:44.780Z,89.43
2019-03-25T21:29:46.652Z,89.40
2019-03-25T21:33:48.753Z,89.55
2019-03-25T21:37:50.748Z,89.27
2019-03-25T21:41:52.678Z,88.76
2019-03-25T21:45:54.652Z,88.40
2019-03-25T21:49:56.655Z,88.22
2019-03-25T21:53:58.568Z,88.51
2019-03-25T21:58:00.616Z,88.44
2019-03-25T22:02:02.724Z,88.76
2019-03-25T22:06:04.630Z,88.72
2019-03-25T22:10:08.420Z,88.61
2019-03-25T22:14:10.321Z,88.39
2019-03-25T22:18:12.233Z,88.38
2019-03-25T22:22:14.144Z,88.59
2019-03-25T22:26:16.070Z,89.28
2019-03-25T22:30:18.134Z,89.45
2019-03-25T22:34:20.104Z,89.52
2019-03-25T22:38:22.003Z,89.50
2019-03-25T22:42:24.071Z,89.74
2019-03-25T22:46:25.973Z,89.54
2019-03-25T22:50:30.495Z,89.61
2019-03-25T22:54:32.442Z,90.01
2019-03-25T22:58:34.523Z,89.78
2019-03-25T23:02:36.419Z,90.02
2019-03-25T23:06:38.319Z,90.45
2019-03-25T23:10:40.196Z,90.56
2019-03-25T23:14:44.868Z,90.63
2019-03-25T23:18:47.032Z,90.64
2019-03-25T23:22:48.923Z,90.76
2019-03-25T23:26:51.822Z,90.93
2019-03-25T23:30:53.771Z,91.13
2019-03-25T23:34:55.680Z,91.31
2019-03-25T23:38:57.634Z,91.25
2019-03-25T23:42:59.531Z,90.83
2019-03-25T23:47:01.895Z,90.77
2019-03-25T23:51:03.849Z,91.03
2019-03-25T23:55:07.503Z,90.97
2019-03-25T23:59:09.381Z,91.01
